Anzahl Datensätze: 286
min. Temperatur: 0.8 °C
max. Temperatur: 17.4 °C
max. Windgeschwindigkeit: 37.4 km/h
Niederschlagsumme: 0.0 mm
| Datum |
Zeit |
Temp °C |
Feuchte % |
Taupunkt °C |
Luftdruck hPa |
Wind km/h |
Windrichtung |
Strahlung w/m² |
Niederschlag mm |
|---|---|---|---|---|---|---|---|---|---|
| 24.03.2026 | 00:02 | 3.2 | 82 | 0.4 | 1021.2 | 0.0 | SW | 0 | 0.0 |
| 24.03.2026 | 00:07 | 2.9 | 83 | 0.3 | 1021.2 | 0.0 | SW | 0 | 0.0 |
| 24.03.2026 | 00:12 | 2.8 | 83 | 0.2 | 1021.3 | 0.0 | SW | 0 | 0.0 |
| 24.03.2026 | 00:17 | 2.8 | 84 | 0.4 | 1021.2 | 0.0 | SW | 0 | 0.0 |
| 24.03.2026 | 00:22 | 2.8 | 84 | 0.4 | 1021.3 | 0.0 | SW | 0 | 0.0 |
| 24.03.2026 | 00:27 | 2.8 | 84 | 0.4 | 1021.4 | 0.0 | SW | 0 | 0.0 |
| 24.03.2026 | 00:32 | 2.7 | 84 | 0.3 | 1021.4 | 0.0 | SW | 0 | 0.0 |
| 24.03.2026 | 00:37 | 2.7 | 84 | 0.3 | 1021.5 | 0.0 | SW | 0 | 0.0 |
| 24.03.2026 | 00:42 | 2.7 | 85 | 0.4 | 1021.5 | 0.0 | SW | 0 | 0.0 |
| 24.03.2026 | 00:47 | 2.6 | 85 | 0.3 | 1021.5 | 0.0 | SW | 0 | 0.0 |
| 24.03.2026 | 00:52 | 2.3 | 85 | 0.0 | 1021.5 | 4.3 | SW | 0 | 0.0 |
| 24.03.2026 | 00:57 | 2.4 | 85 | 0.1 | 1021.4 | 4.3 | SW | 0 | 0.0 |
| 24.03.2026 | 01:02 | 2.4 | 85 | 0.1 | 1021.5 | 4.3 | SW | 0 | 0.0 |
| 24.03.2026 | 01:07 | 2.2 | 86 | 0.1 | 1021.5 | 4.3 | SW | 0 | 0.0 |
| 24.03.2026 | 01:12 | 2.2 | 86 | 0.1 | 1021.5 | 4.3 | SW | 0 | 0.0 |
| 24.03.2026 | 01:17 | 2.4 | 86 | 0.3 | 1021.4 | 4.3 | SW | 0 | 0.0 |
| 24.03.2026 | 01:22 | 2.4 | 86 | 0.3 | 1021.4 | 4.3 | SW | 0 | 0.0 |
| 24.03.2026 | 01:28 | 2.5 | 85 | 0.2 | 1021.4 | 4.3 | SW | 0 | 0.0 |
| 24.03.2026 | 01:33 | 2.6 | 85 | 0.3 | 1021.3 | 4.3 | SW | 0 | 0.0 |
| 24.03.2026 | 01:38 | 2.4 | 85 | 0.1 | 1021.4 | 1.8 | SW | 0 | 0.0 |
| 24.03.2026 | 01:43 | 2.2 | 85 | -0.1 | 1021.4 | 6.1 | SW | 0 | 0.0 |
| 24.03.2026 | 01:48 | 2.2 | 86 | 0.1 | 1021.4 | 4.3 | SW | 0 | 0.0 |
| 24.03.2026 | 01:53 | 2.3 | 85 | 0.0 | 1021.4 | 1.8 | SW | 0 | 0.0 |
| 24.03.2026 | 01:58 | 2.6 | 86 | 0.5 | 1021.4 | 4.3 | SW | 0 | 0.0 |
| 24.03.2026 | 02:03 | 2.8 | 85 | 0.5 | 1021.5 | 4.3 | SW | 0 | 0.0 |
| 24.03.2026 | 02:08 | 2.8 | 85 | 0.5 | 1021.5 | 4.3 | SW | 0 | 0.0 |
| 24.03.2026 | 02:13 | 2.7 | 85 | 0.4 | 1021.5 | 1.8 | SW | 0 | 0.0 |
| 24.03.2026 | 02:18 | 2.8 | 85 | 0.5 | 1021.4 | 4.3 | SW | 0 | 0.0 |
| 24.03.2026 | 02:23 | 2.8 | 85 | 0.5 | 1021.3 | 1.8 | SW | 0 | 0.0 |
| 24.03.2026 | 02:28 | 2.5 | 85 | 0.2 | 1021.3 | 4.3 | SW | 0 | 0.0 |
| 24.03.2026 | 02:33 | 2.2 | 85 | -0.1 | 1021.3 | 1.8 | SW | 0 | 0.0 |
| 24.03.2026 | 02:38 | 2.1 | 86 | 0.0 | 1021.3 | 4.3 | SW | 0 | 0.0 |
| 24.03.2026 | 02:43 | 2.2 | 86 | 0.1 | 1021.2 | 4.3 | SW | 0 | 0.0 |
| 24.03.2026 | 02:48 | 2.3 | 86 | 0.2 | 1021.2 | 1.8 | SW | 0 | 0.0 |
| 24.03.2026 | 02:53 | 2.3 | 86 | 0.2 | 1021.1 | 4.3 | SW | 0 | 0.0 |
| 24.03.2026 | 02:58 | 2.2 | 86 | 0.1 | 1021.0 | 0.0 | SW | 0 | 0.0 |
| 24.03.2026 | 03:03 | 2.1 | 86 | 0.0 | 1021.0 | 1.8 | SW | 0 | 0.0 |
| 24.03.2026 | 03:08 | 1.9 | 86 | -0.2 | 1021.0 | 0.0 | SW | 0 | 0.0 |
| 24.03.2026 | 03:13 | 2.0 | 87 | 0.1 | 1021.1 | 0.0 | SW | 0 | 0.0 |
| 24.03.2026 | 03:18 | 1.8 | 86 | -0.3 | 1021.1 | 4.3 | SW | 0 | 0.0 |
| 24.03.2026 | 03:23 | 1.7 | 87 | -0.2 | 1021.1 | 0.0 | SW | 0 | 0.0 |
| 24.03.2026 | 03:28 | 1.6 | 88 | -0.2 | 1021.1 | 4.3 | SW | 0 | 0.0 |
| 24.03.2026 | 03:33 | 1.8 | 88 | 0.0 | 1021.1 | 4.3 | SW | 0 | 0.0 |
| 24.03.2026 | 03:38 | 1.8 | 88 | 0.0 | 1021.1 | 4.3 | SW | 0 | 0.0 |
| 24.03.2026 | 03:43 | 1.8 | 88 | 0.0 | 1021.1 | 4.3 | SW | 0 | 0.0 |
| 24.03.2026 | 03:48 | 1.8 | 88 | 0.0 | 1021.2 | 0.0 | SW | 0 | 0.0 |
| 24.03.2026 | 03:53 | 1.6 | 88 | -0.2 | 1021.2 | 1.8 | SW | 0 | 0.0 |
| 24.03.2026 | 03:58 | 1.6 | 88 | -0.2 | 1021.3 | 1.8 | SW | 0 | 0.0 |
| 24.03.2026 | 04:03 | 1.6 | 88 | -0.2 | 1021.4 | 0.0 | SW | 0 | 0.0 |
| 24.03.2026 | 04:08 | 1.5 | 88 | -0.3 | 1021.4 | 0.0 | SW | 0 | 0.0 |
| 24.03.2026 | 04:13 | 1.6 | 88 | -0.2 | 1021.4 | 0.0 | SW | 0 | 0.0 |
| 24.03.2026 | 04:19 | 1.6 | 89 | 0.0 | 1021.4 | 6.1 | SW | 0 | 0.0 |
| 24.03.2026 | 04:24 | 1.7 | 89 | 0.1 | 1021.5 | 8.3 | SW | 0 | 0.0 |
| 24.03.2026 | 04:29 | 1.8 | 89 | 0.2 | 1021.5 | 6.1 | SW | 0 | 0.0 |
| 24.03.2026 | 04:34 | 1.8 | 89 | 0.2 | 1021.5 | 1.8 | SW | 0 | 0.0 |
| 24.03.2026 | 04:39 | 1.8 | 90 | 0.3 | 1021.5 | 4.3 | SW | 0 | 0.0 |
| 24.03.2026 | 04:44 | 1.8 | 89 | 0.2 | 1021.5 | 4.3 | SW | 0 | 0.0 |
| 24.03.2026 | 04:49 | 1.7 | 90 | 0.2 | 1021.5 | 4.3 | SW | 0 | 0.0 |
| 24.03.2026 | 04:54 | 1.6 | 90 | 0.1 | 1021.5 | 0.0 | SW | 0 | 0.0 |
| 24.03.2026 | 04:59 | 1.6 | 90 | 0.1 | 1021.5 | 6.1 | SW | 0 | 0.0 |
| 24.03.2026 | 05:04 | 1.7 | 90 | 0.2 | 1021.5 | 4.3 | SW | 0 | 0.0 |
| 24.03.2026 | 05:09 | 1.7 | 90 | 0.2 | 1021.5 | 4.3 | SW | 0 | 0.0 |
| 24.03.2026 | 05:14 | 1.7 | 90 | 0.2 | 1021.6 | 0.0 | SW | 0 | 0.0 |
| 24.03.2026 | 05:19 | 1.7 | 90 | 0.2 | 1021.6 | 1.8 | SW | 0 | 0.0 |
| 24.03.2026 | 05:24 | 1.7 | 90 | 0.2 | 1021.6 | 0.0 | SW | 0 | 0.0 |
| 24.03.2026 | 05:29 | 1.8 | 90 | 0.3 | 1021.7 | 0.0 | SW | 0 | 0.0 |
| 24.03.2026 | 05:34 | 1.6 | 90 | 0.1 | 1021.7 | 0.0 | SW | 0 | 0.0 |
| 24.03.2026 | 05:39 | 1.4 | 90 | -0.1 | 1021.7 | 0.0 | SW | 0 | 0.0 |
| 24.03.2026 | 05:44 | 1.3 | 90 | -0.2 | 1021.8 | 6.1 | SW | 0 | 0.0 |
| 24.03.2026 | 05:49 | 1.3 | 90 | -0.2 | 1021.8 | 4.3 | SW | 0 | 0.0 |
| 24.03.2026 | 05:54 | 1.3 | 90 | -0.2 | 1021.7 | 4.3 | SW | 0 | 0.0 |
| 24.03.2026 | 05:59 | 1.3 | 90 | -0.2 | 1021.7 | 4.3 | SW | 0 | 0.0 |
| 24.03.2026 | 06:04 | 1.2 | 90 | -0.3 | 1021.8 | 6.1 | SW | 0 | 0.0 |
| 24.03.2026 | 06:09 | 1.0 | 90 | -0.5 | 1021.8 | 1.8 | SW | 0 | 0.0 |
| 24.03.2026 | 06:14 | 0.9 | 90 | -0.6 | 1021.8 | 6.1 | SW | 0 | 0.0 |
| 24.03.2026 | 06:19 | 0.9 | 90 | -0.6 | 1021.8 | 1.8 | SSW | 0 | 0.0 |
| 24.03.2026 | 06:24 | 0.8 | 90 | -0.7 | 1021.9 | 6.1 | SSW | 0 | 0.0 |
| 24.03.2026 | 06:29 | 0.8 | 90 | -0.7 | 1021.9 | 6.1 | SW | 7 | 0.0 |
| 24.03.2026 | 06:34 | 1.1 | 91 | -0.2 | 1021.9 | 6.1 | SW | 11 | 0.0 |
| 24.03.2026 | 06:39 | 1.3 | 91 | 0.0 | 1022.0 | 6.1 | SSW | 16 | 0.0 |
| 24.03.2026 | 06:45 | 1.6 | 90 | 0.1 | 1022.0 | 8.3 | SSW | 21 | 0.0 |
| 24.03.2026 | 06:50 | 1.7 | 90 | 0.2 | 1022.1 | 8.3 | SSW | 25 | 0.0 |
| 24.03.2026 | 06:55 | 1.8 | 90 | 0.3 | 1022.1 | 4.3 | SW | 28 | 0.0 |
| 24.03.2026 | 07:00 | 1.9 | 90 | 0.4 | 1022.1 | 6.1 | SSW | 32 | 0.0 |
| 24.03.2026 | 07:05 | 2.1 | 89 | 0.5 | 1022.0 | 8.3 | SSW | 39 | 0.0 |
| 24.03.2026 | 07:10 | 2.2 | 89 | 0.6 | 1022.1 | 8.3 | SSW | 44 | 0.0 |
| 24.03.2026 | 07:15 | 2.5 | 89 | 0.9 | 1022.0 | 8.3 | SW | 49 | 0.0 |
| 24.03.2026 | 07:20 | 2.7 | 89 | 1.1 | 1022.1 | 6.1 | S | 49 | 0.0 |
| 24.03.2026 | 07:25 | 2.9 | 88 | 1.1 | 1022.1 | 6.1 | SSW | 54 | 0.0 |
| 24.03.2026 | 07:30 | 3.2 | 88 | 1.4 | 1022.2 | 4.3 | SSW | 65 | 0.0 |
| 24.03.2026 | 07:35 | 3.4 | 87 | 1.4 | 1022.2 | 1.8 | SSW | 81 | 0.0 |
| 24.03.2026 | 07:40 | 3.7 | 87 | 1.7 | 1022.2 | 6.1 | SSW | 146 | 0.0 |
| 24.03.2026 | 07:45 | 3.9 | 86 | 1.8 | 1022.2 | 6.1 | SW | 179 | 0.0 |
| 24.03.2026 | 07:50 | 4.3 | 86 | 2.2 | 1022.2 | 6.1 | SW | 178 | 0.0 |
| 24.03.2026 | 07:55 | 4.6 | 85 | 2.3 | 1022.2 | 6.1 | SW | 153 | 0.0 |
| 24.03.2026 | 08:00 | 4.9 | 84 | 2.4 | 1022.3 | 4.3 | S | 162 | 0.0 |
| 24.03.2026 | 08:05 | 5.2 | 84 | 2.7 | 1022.3 | 4.3 | SSW | 216 | 0.0 |
| 24.03.2026 | 08:10 | 5.6 | 83 | 2.9 | 1022.3 | 4.3 | SSW | 195 | 0.0 |
| 24.03.2026 | 08:15 | 5.8 | 82 | 3.0 | 1022.4 | 6.1 | SSW | 209 | 0.0 |
| 24.03.2026 | 08:20 | 6.1 | 82 | 3.3 | 1022.4 | 6.1 | SW | 179 | 0.0 |
| 24.03.2026 | 08:25 | 6.2 | 81 | 3.2 | 1022.5 | 8.3 | SSW | 190 | 0.0 |
| 24.03.2026 | 08:30 | 6.4 | 80 | 3.2 | 1022.5 | 8.3 | SSW | 178 | 0.0 |
| 24.03.2026 | 08:35 | 6.6 | 81 | 3.6 | 1022.5 | 10.4 | SSW | 163 | 0.0 |
| 24.03.2026 | 08:40 | 6.7 | 81 | 3.7 | 1022.5 | 12.6 | SSW | 185 | 0.0 |
| 24.03.2026 | 08:45 | 6.9 | 80 | 3.7 | 1022.5 | 4.3 | S | 197 | 0.0 |
| 24.03.2026 | 08:50 | 7.1 | 80 | 3.9 | 1022.5 | 6.1 | S | 163 | 0.0 |
| 24.03.2026 | 08:55 | 7.2 | 79 | 3.8 | 1022.5 | 4.3 | SSW | 206 | 0.0 |
| 24.03.2026 | 09:00 | 7.3 | 78 | 3.7 | 1022.5 | 8.3 | SSO | 188 | 0.0 |
| 24.03.2026 | 09:05 | 7.3 | 78 | 3.7 | 1022.6 | 8.3 | SSW | 229 | 0.0 |
| 24.03.2026 | 09:10 | 7.8 | 77 | 4.0 | 1022.5 | 14.4 | SSW | 158 | 0.0 |
| 24.03.2026 | 09:15 | 8.2 | 76 | 4.2 | 1022.4 | 6.1 | SW | 186 | 0.0 |
| 24.03.2026 | 09:20 | 8.4 | 74 | 4.0 | 1022.3 | 10.4 | WSW | 130 | 0.0 |
| 24.03.2026 | 09:25 | 8.7 | 74 | 4.3 | 1022.4 | 6.1 | S | 248 | 0.0 |
| 24.03.2026 | 09:30 | 9.1 | 74 | 4.7 | 1022.4 | 12.6 | S | 248 | 0.0 |
| 24.03.2026 | 09:35 | 9.2 | 72 | 4.4 | 1022.4 | 8.3 | SSW | 234 | 0.0 |
| 24.03.2026 | 09:41 | 9.3 | 71 | 4.3 | 1022.4 | 16.9 | S | 162 | 0.0 |
| 24.03.2026 | 09:46 | 9.5 | 71 | 4.5 | 1022.4 | 12.6 | SSW | 290 | 0.0 |
| 24.03.2026 | 09:51 | 9.7 | 71 | 4.7 | 1022.2 | 10.4 | SSW | 260 | 0.0 |
| 24.03.2026 | 09:56 | 10.0 | 70 | 4.8 | 1022.3 | 12.6 | S | 218 | 0.0 |
| 24.03.2026 | 10:01 | 10.3 | 69 | 4.9 | 1022.3 | 12.6 | S | 334 | 0.0 |
| 24.03.2026 | 10:06 | 10.4 | 69 | 5.0 | 1022.2 | 10.4 | SSW | 318 | 0.0 |
| 24.03.2026 | 10:11 | 10.9 | 68 | 5.2 | 1022.2 | 10.4 | SSW | 311 | 0.0 |
| 24.03.2026 | 10:16 | 11.0 | 67 | 5.1 | 1022.3 | 6.1 | SSW | 236 | 0.0 |
| 24.03.2026 | 10:21 | 10.9 | 68 | 5.2 | 1022.2 | 12.6 | SW | 345 | 0.0 |
| 24.03.2026 | 10:26 | 11.2 | 67 | 5.3 | 1022.2 | 10.4 | SO | 459 | 0.0 |
| 24.03.2026 | 10:31 | 11.6 | 66 | 5.5 | 1022.1 | 10.4 | SW | 464 | 0.0 |
| 24.03.2026 | 10:36 | 11.8 | 66 | 5.7 | 1022.1 | 12.6 | SSO | 526 | 0.0 |
| 24.03.2026 | 10:41 | 12.1 | 64 | 5.5 | 1022.1 | 8.3 | SW | 563 | 0.0 |
| 24.03.2026 | 10:46 | 12.5 | 65 | 6.1 | 1022.0 | 6.1 | S | 548 | 0.0 |
| 24.03.2026 | 10:51 | 12.7 | 63 | 5.8 | 1021.9 | 8.3 | S | 452 | 0.0 |
| 24.03.2026 | 10:56 | 12.7 | 62 | 5.6 | 1021.8 | 8.3 | S | 557 | 0.0 |
| 24.03.2026 | 11:01 | 12.7 | 59 | 4.9 | 1021.8 | 6.1 | S | 622 | 0.0 |
| 24.03.2026 | 11:06 | 13.2 | 62 | 6.1 | 1021.7 | 18.7 | S | 601 | 0.0 |
| 24.03.2026 | 11:11 | 13.1 | 61 | 5.7 | 1021.8 | 21.2 | S | 612 | 0.0 |
| 24.03.2026 | 11:16 | 13.2 | 61 | 5.8 | 1021.7 | 1.8 | SSO | 475 | 0.0 |
| 24.03.2026 | 11:21 | 13.3 | 60 | 5.7 | 1021.7 | 12.6 | S | 587 | 0.0 |
| 24.03.2026 | 11:26 | 13.5 | 60 | 5.9 | 1021.7 | 12.6 | SSW | 649 | 0.0 |
| 24.03.2026 | 11:31 | 13.7 | 59 | 5.8 | 1021.6 | 4.3 | SSW | 659 | 0.0 |
| 24.03.2026 | 11:36 | 13.9 | 59 | 6.0 | 1021.6 | 10.4 | SSO | 626 | 0.0 |
| 24.03.2026 | 11:41 | 14.1 | 58 | 6.0 | 1021.6 | 10.4 | SSW | 538 | 0.0 |
| 24.03.2026 | 11:46 | 13.9 | 56 | 5.3 | 1021.6 | 14.4 | S | 561 | 0.0 |
| 24.03.2026 | 11:51 | 14.2 | 57 | 5.8 | 1021.5 | 10.4 | SW | 661 | 0.0 |
| 24.03.2026 | 11:56 | 14.5 | 57 | 6.1 | 1021.5 | 4.3 | SW | 652 | 0.0 |
| 24.03.2026 | 12:01 | 14.8 | 55 | 5.8 | 1021.3 | 12.6 | W | 752 | 0.0 |
| 24.03.2026 | 12:06 | 14.9 | 56 | 6.2 | 1021.3 | 6.1 | SSW | 684 | 0.0 |
| 24.03.2026 | 12:11 | 15.2 | 54 | 6.0 | 1021.2 | 18.7 | SSW | 621 | 0.0 |
| 24.03.2026 | 12:16 | 15.4 | 53 | 5.9 | 1021.3 | 6.1 | SSW | 677 | 0.0 |
| 24.03.2026 | 12:21 | 15.5 | 55 | 6.5 | 1021.3 | 8.3 | SW | 573 | 0.0 |
| 24.03.2026 | 12:26 | 15.4 | 53 | 5.9 | 1021.3 | 18.7 | SSO | 527 | 0.0 |
| 24.03.2026 | 12:32 | 15.3 | 53 | 5.8 | 1021.2 | 4.3 | S | 448 | 0.0 |
| 24.03.2026 | 12:37 | 15.3 | 53 | 5.8 | 1021.1 | 8.3 | SSO | 455 | 0.0 |
| 24.03.2026 | 12:42 | 15.4 | 54 | 6.1 | 1021.0 | 4.3 | SSW | 485 | 0.0 |
| 24.03.2026 | 12:47 | 15.7 | 51 | 5.6 | 1020.9 | 14.4 | SW | 420 | 0.0 |
| 24.03.2026 | 12:52 | 15.3 | 50 | 4.9 | 1020.8 | 10.4 | S | 446 | 0.0 |
| 24.03.2026 | 12:57 | 15.4 | 49 | 4.7 | 1020.8 | 16.9 | SSO | 578 | 0.0 |
| 24.03.2026 | 13:02 | 15.7 | 48 | 4.7 | 1020.7 | 10.4 | SSW | 580 | 0.0 |
| 24.03.2026 | 13:07 | 15.9 | 50 | 5.5 | 1020.7 | 6.1 | SSW | 621 | 0.0 |
| 24.03.2026 | 13:12 | 16.1 | 48 | 5.1 | 1020.6 | 12.6 | SSW | 666 | 0.0 |
| 24.03.2026 | 13:17 | 16.1 | 46 | 4.5 | 1020.5 | 21.2 | S | 577 | 0.0 |
| 24.03.2026 | 13:22 | 15.9 | 47 | 4.6 | 1020.4 | 10.4 | S | 461 | 0.0 |
| 24.03.2026 | 13:27 | 15.8 | 48 | 4.8 | 1020.3 | 12.6 | SSW | 410 | 0.0 |
| 24.03.2026 | 13:32 | 15.7 | 48 | 4.7 | 1020.1 | 10.4 | SSW | 394 | 0.0 |
| 24.03.2026 | 13:37 | 15.7 | 48 | 4.7 | 1020.1 | 8.3 | S | 417 | 0.0 |
| 24.03.2026 | 13:42 | 15.7 | 46 | 4.1 | 1020.0 | 8.3 | SSW | 406 | 0.0 |
| 24.03.2026 | 13:47 | 15.7 | 46 | 4.1 | 1020.0 | 18.7 | SSO | 385 | 0.0 |
| 24.03.2026 | 13:52 | 15.8 | 48 | 4.8 | 1019.9 | 16.9 | S | 420 | 0.0 |
| 24.03.2026 | 13:57 | 16.0 | 48 | 5.0 | 1019.8 | 18.7 | SSW | 441 | 0.0 |
| 24.03.2026 | 14:02 | 15.9 | 46 | 4.3 | 1019.8 | 14.4 | SSW | 461 | 0.0 |
| 24.03.2026 | 14:07 | 16.2 | 47 | 4.9 | 1019.7 | 12.6 | S | 508 | 0.0 |
| 24.03.2026 | 14:12 | 16.6 | 46 | 4.9 | 1019.7 | 23.0 | SSO | 782 | 0.0 |
| 24.03.2026 | 14:17 | 17.1 | 47 | 5.7 | 1019.6 | 8.3 | WSW | 766 | 0.0 |
| 24.03.2026 | 14:22 | 17.4 | 44 | 5.0 | 1019.5 | 4.3 | WSW | 782 | 0.0 |
| 24.03.2026 | 14:27 | 17.3 | 44 | 4.9 | 1019.5 | 8.3 | WSW | 791 | 0.0 |
| 24.03.2026 | 14:32 | 17.2 | 43 | 4.5 | 1019.3 | 14.4 | WSW | 649 | 0.0 |
| 24.03.2026 | 14:37 | 17.1 | 42 | 4.1 | 1019.3 | 27.0 | SO | 373 | 0.0 |
| 24.03.2026 | 14:42 | 16.6 | 44 | 4.3 | 1019.3 | 10.4 | S | 425 | 0.0 |
| 24.03.2026 | 14:47 | 16.7 | 46 | 5.0 | 1019.2 | 10.4 | SSW | 526 | 0.0 |
| 24.03.2026 | 14:52 | 16.8 | 45 | 4.8 | 1019.1 | 8.3 | W | 591 | 0.0 |
| 24.03.2026 | 14:57 | 17.1 | 43 | 4.4 | 1019.1 | 16.9 | SSW | 490 | 0.0 |
| 24.03.2026 | 15:02 | 17.0 | 44 | 4.7 | 1019.0 | 10.4 | SW | 557 | 0.0 |
| 24.03.2026 | 15:07 | 17.0 | 45 | 5.0 | 1018.9 | 8.3 | WSW | 478 | 0.0 |
| 24.03.2026 | 15:12 | 16.9 | 45 | 4.9 | 1018.8 | 8.3 | WSW | 427 | 0.0 |
| 24.03.2026 | 15:17 | 17.1 | 44 | 4.7 | 1018.7 | 10.4 | S | 478 | 0.0 |
| 24.03.2026 | 15:22 | 17.0 | 45 | 5.0 | 1018.7 | 14.4 | SSW | 473 | 0.0 |
| 24.03.2026 | 15:28 | 16.9 | 45 | 4.9 | 1018.6 | 14.4 | SSW | 427 | 0.0 |
| 24.03.2026 | 15:33 | 17.0 | 45 | 5.0 | 1018.6 | 16.9 | SW | 396 | 0.0 |
| 24.03.2026 | 15:38 | 17.1 | 44 | 4.7 | 1018.5 | 8.3 | S | 422 | 0.0 |
| 24.03.2026 | 15:43 | 17.1 | 45 | 5.1 | 1018.5 | 27.0 | SSW | 399 | 0.0 |
| 24.03.2026 | 15:48 | 16.8 | 46 | 5.1 | 1018.3 | 21.2 | S | 373 | 0.0 |
| 24.03.2026 | 15:53 | 16.8 | 45 | 4.8 | 1018.3 | 16.9 | WSW | 371 | 0.0 |
| 24.03.2026 | 15:58 | 17.0 | 44 | 4.7 | 1018.3 | 10.4 | S | 408 | 0.0 |
| 24.03.2026 | 16:03 | 16.9 | 44 | 4.6 | 1018.2 | 16.9 | SSW | 244 | 0.0 |
| 24.03.2026 | 16:08 | 16.7 | 45 | 4.7 | 1018.2 | 14.4 | SSW | 209 | 0.0 |
| 24.03.2026 | 16:13 | 16.4 | 45 | 4.4 | 1018.1 | 18.7 | WSW | 218 | 0.0 |
| 24.03.2026 | 16:18 | 16.4 | 46 | 4.7 | 1018.0 | 8.3 | WSW | 220 | 0.0 |
| 24.03.2026 | 16:23 | 16.4 | 46 | 4.7 | 1018.0 | 10.4 | S | 195 | 0.0 |
| 24.03.2026 | 16:28 | 16.4 | 47 | 5.1 | 1017.9 | 12.6 | WSW | 197 | 0.0 |
| 24.03.2026 | 16:33 | 16.4 | 48 | 5.4 | 1017.8 | 8.3 | SSW | 197 | 0.0 |
| 24.03.2026 | 16:38 | 16.3 | 47 | 5.0 | 1017.8 | 10.4 | WSW | 169 | 0.0 |
| 24.03.2026 | 16:43 | 16.2 | 48 | 5.2 | 1017.6 | 12.6 | W | 172 | 0.0 |
| 24.03.2026 | 16:48 | 16.2 | 47 | 4.9 | 1017.6 | 10.4 | SSW | 160 | 0.0 |
| 24.03.2026 | 16:53 | 16.1 | 46 | 4.5 | 1017.5 | 16.9 | W | 144 | 0.0 |
| 24.03.2026 | 16:58 | 15.9 | 48 | 4.9 | 1017.5 | 16.9 | SW | 127 | 0.0 |
| 24.03.2026 | 17:03 | 15.9 | 48 | 4.9 | 1017.5 | 14.4 | S | 132 | 0.0 |
| 24.03.2026 | 17:08 | 15.8 | 48 | 4.8 | 1017.5 | 6.1 | SSW | 148 | 0.0 |
| 24.03.2026 | 17:13 | 15.8 | 49 | 5.1 | 1017.4 | 6.1 | SSW | 146 | 0.0 |
| 24.03.2026 | 17:18 | 15.8 | 48 | 4.8 | 1017.4 | 8.3 | SSW | 158 | 0.0 |
| 24.03.2026 | 17:23 | 15.8 | 50 | 5.4 | 1017.3 | 25.2 | SW | 151 | 0.0 |
| 24.03.2026 | 17:28 | 15.8 | 50 | 5.4 | 1017.3 | 4.3 | SW | 141 | 0.0 |
| 24.03.2026 | 17:33 | 15.8 | 50 | 5.4 | 1017.2 | 8.3 | SSW | 128 | 0.0 |
| 24.03.2026 | 17:38 | 15.7 | 50 | 5.3 | 1017.1 | 8.3 | SW | 105 | 0.0 |
| 24.03.2026 | 17:43 | 15.6 | 50 | 5.2 | 1017.1 | 1.8 | SW | 86 | 0.0 |
| 24.03.2026 | 17:48 | 15.4 | 51 | 5.3 | 1017.0 | 1.8 | WSW | 69 | 0.0 |
| 24.03.2026 | 17:53 | 15.3 | 51 | 5.2 | 1016.8 | 10.4 | SW | 56 | 0.0 |
| 24.03.2026 | 17:58 | 15.1 | 52 | 5.3 | 1016.8 | 6.1 | SW | 51 | 0.0 |
| 24.03.2026 | 18:03 | 15.0 | 52 | 5.2 | 1016.8 | 8.3 | SW | 47 | 0.0 |
| 24.03.2026 | 18:08 | 14.9 | 52 | 5.1 | 1016.8 | 6.1 | SSW | 42 | 0.0 |
| 24.03.2026 | 18:13 | 14.8 | 52 | 5.0 | 1016.6 | 6.1 | SSW | 42 | 0.0 |
| 24.03.2026 | 18:18 | 14.8 | 53 | 5.3 | 1016.6 | 6.1 | SSW | 47 | 0.0 |
| 24.03.2026 | 18:24 | 14.7 | 53 | 5.2 | 1016.6 | 4.3 | SSW | 42 | 0.0 |
| 24.03.2026 | 18:29 | 14.6 | 54 | 5.4 | 1016.5 | 1.8 | SSW | 32 | 0.0 |
| 24.03.2026 | 18:34 | 14.5 | 54 | 5.3 | 1016.4 | 4.3 | S | 23 | 0.0 |
| 24.03.2026 | 18:39 | 14.4 | 55 | 5.5 | 1016.4 | 0.0 | SSW | 14 | 0.0 |
| 24.03.2026 | 18:44 | 14.2 | 56 | 5.5 | 1016.3 | 1.8 | SSO | 9 | 0.0 |
| 24.03.2026 | 18:49 | 14.0 | 56 | 5.4 | 1016.2 | 4.3 | S | 0 | 0.0 |
| 24.03.2026 | 18:54 | 13.9 | 56 | 5.3 | 1016.2 | 4.3 | S | 0 | 0.0 |
| 24.03.2026 | 18:59 | 13.7 | 57 | 5.3 | 1016.2 | 0.0 | S | 0 | 0.0 |
| 24.03.2026 | 19:04 | 13.5 | 57 | 5.1 | 1016.1 | 0.0 | S | 0 | 0.0 |
| 24.03.2026 | 19:09 | 13.4 | 57 | 5.1 | 1016.2 | 0.0 | S | 0 | 0.0 |
| 24.03.2026 | 19:14 | 13.1 | 58 | 5.0 | 1016.2 | 0.0 | S | 0 | 0.0 |
| 24.03.2026 | 19:19 | 12.9 | 58 | 4.8 | 1016.1 | 1.8 | S | 0 | 0.0 |
| 24.03.2026 | 19:24 | 12.8 | 58 | 4.7 | 1016.0 | 4.3 | S | 0 | 0.0 |
| 24.03.2026 | 19:29 | 12.7 | 58 | 4.6 | 1016.1 | 1.8 | S | 0 | 0.0 |
| 24.03.2026 | 19:34 | 12.6 | 59 | 4.8 | 1016.1 | 6.1 | SSW | 0 | 0.0 |
| 24.03.2026 | 19:39 | 12.3 | 60 | 4.8 | 1016.1 | 1.8 | SSW | 0 | 0.0 |
| 24.03.2026 | 19:44 | 12.2 | 60 | 4.7 | 1016.1 | 4.3 | SSW | 0 | 0.0 |
| 24.03.2026 | 19:49 | 12.1 | 60 | 4.6 | 1016.0 | 4.3 | SSW | 0 | 0.0 |
| 24.03.2026 | 19:54 | 11.9 | 61 | 4.6 | 1015.9 | 4.3 | SSW | 0 | 0.0 |
| 24.03.2026 | 19:59 | 11.9 | 61 | 4.6 | 1015.8 | 6.1 | SW | 0 | 0.0 |
| 24.03.2026 | 20:04 | 11.7 | 62 | 4.7 | 1015.7 | 1.8 | SW | 0 | 0.0 |
| 24.03.2026 | 20:09 | 11.2 | 64 | 4.6 | 1015.7 | 1.8 | WSW | 0 | 0.0 |
| 24.03.2026 | 20:14 | 11.1 | 64 | 4.5 | 1015.6 | 6.1 | WSW | 0 | 0.0 |
| 24.03.2026 | 20:19 | 11.1 | 64 | 4.5 | 1015.5 | 4.3 | WSW | 0 | 0.0 |
| 24.03.2026 | 20:24 | 11.1 | 64 | 4.5 | 1015.4 | 4.3 | WSW | 0 | 0.0 |
| 24.03.2026 | 20:29 | 11.2 | 63 | 4.4 | 1015.4 | 4.3 | SW | 0 | 0.0 |
| 24.03.2026 | 20:34 | 11.2 | 63 | 4.4 | 1015.3 | 4.3 | SW | 0 | 0.0 |
| 24.03.2026 | 20:39 | 11.0 | 64 | 4.5 | 1015.4 | 4.3 | SW | 0 | 0.0 |
| 24.03.2026 | 20:44 | 10.8 | 65 | 4.5 | 1015.4 | 4.3 | WSW | 0 | 0.0 |
| 24.03.2026 | 20:49 | 10.7 | 65 | 4.4 | 1015.2 | 4.3 | SW | 0 | 0.0 |
| 24.03.2026 | 20:54 | 10.8 | 64 | 4.3 | 1015.1 | 4.3 | SW | 0 | 0.0 |
| 24.03.2026 | 21:00 | 11.1 | 64 | 4.5 | 1015.0 | 6.1 | SSW | 0 | 0.0 |
| 24.03.2026 | 21:05 | 11.0 | 64 | 4.5 | 1014.9 | 4.3 | SSW | 0 | 0.0 |
| 24.03.2026 | 21:10 | 10.9 | 64 | 4.4 | 1015.0 | 4.3 | SW | 0 | 0.0 |
| 24.03.2026 | 21:15 | 10.8 | 64 | 4.3 | 1014.9 | 4.3 | SSW | 0 | 0.0 |
| 24.03.2026 | 21:20 | 10.7 | 65 | 4.4 | 1014.8 | 6.1 | SSW | 0 | 0.0 |
| 24.03.2026 | 21:25 | 10.7 | 64 | 4.2 | 1014.8 | 4.3 | SSW | 0 | 0.0 |
| 24.03.2026 | 21:30 | 10.8 | 65 | 4.5 | 1014.7 | 4.3 | SSW | 0 | 0.0 |
| 24.03.2026 | 21:35 | 10.8 | 65 | 4.5 | 1014.6 | 6.1 | SSW | 0 | 0.0 |
| 24.03.2026 | 21:40 | 10.8 | 65 | 4.5 | 1014.6 | 6.1 | SW | 0 | 0.0 |
| 24.03.2026 | 21:45 | 11.1 | 64 | 4.5 | 1014.4 | 6.1 | SSW | 0 | 0.0 |
| 24.03.2026 | 21:50 | 11.1 | 64 | 4.5 | 1014.3 | 10.4 | SW | 0 | 0.0 |
| 24.03.2026 | 21:55 | 11.1 | 64 | 4.5 | 1014.4 | 6.1 | SW | 0 | 0.0 |
| 24.03.2026 | 22:00 | 11.1 | 64 | 4.5 | 1014.4 | 4.3 | SW | 0 | 0.0 |
| 24.03.2026 | 22:05 | 11.1 | 64 | 4.5 | 1014.3 | 8.3 | SW | 0 | 0.0 |
| 24.03.2026 | 22:10 | 11.0 | 64 | 4.5 | 1014.4 | 4.3 | WSW | 0 | 0.0 |
| 24.03.2026 | 22:15 | 10.9 | 64 | 4.4 | 1014.4 | 6.1 | WSW | 0 | 0.0 |
| 24.03.2026 | 22:20 | 10.8 | 65 | 4.5 | 1014.4 | 6.1 | SW | 0 | 0.0 |
| 24.03.2026 | 22:25 | 10.8 | 65 | 4.5 | 1014.3 | 4.3 | SW | 0 | 0.0 |
| 24.03.2026 | 22:30 | 10.9 | 65 | 4.6 | 1014.3 | 6.1 | SW | 0 | 0.0 |
| 24.03.2026 | 22:35 | 10.9 | 65 | 4.6 | 1014.3 | 8.3 | SW | 0 | 0.0 |
| 24.03.2026 | 22:40 | 10.7 | 65 | 4.4 | 1014.3 | 8.3 | SW | 0 | 0.0 |
| 24.03.2026 | 22:45 | 10.5 | 66 | 4.4 | 1014.3 | 6.1 | SW | 0 | 0.0 |
| 24.03.2026 | 22:50 | 10.3 | 66 | 4.2 | 1014.2 | 8.3 | SSW | 0 | 0.0 |
| 24.03.2026 | 22:55 | 10.2 | 66 | 4.1 | 1014.1 | 8.3 | SSW | 0 | 0.0 |
| 24.03.2026 | 23:00 | 10.1 | 67 | 4.2 | 1014.1 | 8.3 | SSW | 0 | 0.0 |
| 24.03.2026 | 23:05 | 9.9 | 67 | 4.1 | 1014.0 | 10.4 | SSW | 0 | 0.0 |
| 24.03.2026 | 23:10 | 9.9 | 67 | 4.1 | 1013.9 | 8.3 | WSW | 0 | 0.0 |
| 24.03.2026 | 23:15 | 9.9 | 67 | 4.1 | 1013.7 | 10.4 | SSW | 0 | 0.0 |
| 24.03.2026 | 23:20 | 9.9 | 67 | 4.1 | 1013.7 | 18.7 | SSW | 0 | 0.0 |
| 24.03.2026 | 23:25 | 10.0 | 67 | 4.2 | 1013.6 | 10.4 | SW | 0 | 0.0 |
| 24.03.2026 | 23:30 | 9.9 | 67 | 4.1 | 1013.5 | 6.1 | SSW | 0 | 0.0 |
| 24.03.2026 | 23:35 | 9.9 | 67 | 4.1 | 1013.4 | 4.3 | SSW | 0 | 0.0 |
| 24.03.2026 | 23:40 | 9.7 | 68 | 4.1 | 1013.4 | 8.3 | SSW | 0 | 0.0 |
| 24.03.2026 | 23:45 | 9.6 | 68 | 4.0 | 1013.4 | 6.1 | SW | 0 | 0.0 |
| 24.03.2026 | 23:50 | 9.6 | 68 | 4.0 | 1013.3 | 8.3 | SW | 0 | 0.0 |
| 24.03.2026 | 23:56 | 9.5 | 68 | 3.9 | 1013.2 | 12.6 | SW | 0 | 0.0 |